createdAt,value
2018-06-29T00:02:22.644Z,9.33
2018-06-29T00:04:51.191Z,10.23
2018-06-29T00:07:19.546Z,9.57
2018-06-29T00:09:47.878Z,10.13
2018-06-29T00:12:16.176Z,8.90
2018-06-29T00:14:44.576Z,9.40
2018-06-29T00:17:12.808Z,9.23
2018-06-29T00:19:41.253Z,8.40
2018-06-29T00:22:09.751Z,9.57
2018-06-29T00:24:38.133Z,9.43
2018-06-29T00:27:13.233Z,9.20
2018-06-29T00:29:41.633Z,9.20
2018-06-29T00:32:10.030Z,8.90
2018-06-29T00:34:38.392Z,9.90
2018-06-29T00:37:06.866Z,9.47
2018-06-29T00:39:35.292Z,9.33
2018-06-29T00:42:03.833Z,8.90
2018-06-29T00:44:32.517Z,9.00
2018-06-29T00:47:00.906Z,8.50
2018-06-29T00:49:29.215Z,8.37
2018-06-29T00:51:57.559Z,9.53
2018-06-29T00:54:25.934Z,9.07
2018-06-29T00:56:54.265Z,9.13
2018-06-29T00:59:22.688Z,9.07
2018-06-29T01:01:51.045Z,8.90
2018-06-29T01:04:19.423Z,7.93
2018-06-29T01:06:47.718Z,8.93
2018-06-29T01:09:16.094Z,10.20
2018-06-29T01:11:44.489Z,9.10
2018-06-29T01:14:12.841Z,9.67
2018-06-29T01:16:41.176Z,9.20
2018-06-29T01:19:09.829Z,9.70
2018-06-29T01:21:38.172Z,9.40
2018-06-29T01:24:06.656Z,10.03
2018-06-29T01:26:35.139Z,9.77
2018-06-29T01:29:03.589Z,9.67
2018-06-29T01:31:32.202Z,9.60
2018-06-29T01:34:00.575Z,9.87
2018-06-29T01:36:29.058Z,10.67
2018-06-29T01:38:57.621Z,8.53
2018-06-29T01:41:25.994Z,9.53
2018-06-29T01:43:54.640Z,9.47
2018-06-29T01:46:23.016Z,9.73
2018-06-29T01:48:51.516Z,8.70
2018-06-29T01:51:19.956Z,8.93
2018-06-29T01:53:48.301Z,8.93
2018-06-29T01:56:16.612Z,9.40
2018-06-29T01:58:44.903Z,9.50
2018-06-29T02:01:13.256Z,8.67
2018-06-29T02:03:41.571Z,9.90
2018-06-29T02:06:09.846Z,9.30
2018-06-29T02:08:38.234Z,10.10
2018-06-29T02:11:06.823Z,9.70
2018-06-29T02:13:35.168Z,9.23
2018-06-29T02:16:03.563Z,9.23
2018-06-29T02:18:31.796Z,9.27
2018-06-29T02:21:00.137Z,9.73
2018-06-29T02:23:28.483Z,9.73
2018-06-29T02:25:56.866Z,11.27
2018-06-29T02:28:25.158Z,10.63
2018-06-29T02:30:53.593Z,9.43
2018-06-29T02:33:21.898Z,10.43
2018-06-29T02:35:50.330Z,10.13
2018-06-29T02:38:18.682Z,9.90
2018-06-29T02:40:47.186Z,10.30
2018-06-29T02:43:16.222Z,10.90
2018-06-29T02:45:44.549Z,10.83
2018-06-29T02:48:12.842Z,10.40
2018-06-29T02:50:41.210Z,10.70
2018-06-29T02:53:09.612Z,9.37
2018-06-29T02:55:38.069Z,10.17
2018-06-29T02:58:09.330Z,10.40
2018-06-29T03:00:37.687Z,10.90
2018-06-29T03:03:06.018Z,9.97
2018-06-29T03:05:34.357Z,10.50
2018-06-29T03:08:02.747Z,11.43
2018-06-29T03:10:31.073Z,10.20
2018-06-29T03:12:59.441Z,10.43
2018-06-29T03:15:27.857Z,10.50
2018-06-29T03:17:56.210Z,10.50
2018-06-29T03:20:24.537Z,10.17
2018-06-29T03:22:52.841Z,10.47
2018-06-29T03:25:21.181Z,8.70
2018-06-29T03:27:49.499Z,9.00
2018-06-29T03:30:17.906Z,9.80
2018-06-29T03:32:46.213Z,10.40
2018-06-29T03:35:14.576Z,10.70
2018-06-29T03:37:42.941Z,9.40
2018-06-29T03:40:11.331Z,9.97
2018-06-29T03:42:39.673Z,10.03
2018-06-29T03:45:08.136Z,8.63
2018-06-29T03:47:36.496Z,8.90
2018-06-29T03:50:05.310Z,8.73
2018-06-29T03:52:33.598Z,9.13
2018-06-29T03:55:01.994Z,8.10
2018-06-29T03:57:30.350Z,9.57
2018-06-29T03:59:58.765Z,8.87
2018-06-29T04:02:27.255Z,8.40
2018-06-29T04:04:55.969Z,8.30
2018-06-29T04:07:24.334Z,9.37
2018-06-29T04:09:52.662Z,9.33
2018-06-29T04:12:21.008Z,9.70
2018-06-29T04:14:49.336Z,8.80
2018-06-29T04:17:17.657Z,8.27
2018-06-29T04:19:46.013Z,9.70
2018-06-29T04:22:14.196Z,9.10
2018-06-29T04:24:42.537Z,9.67
2018-06-29T04:27:10.943Z,9.40
2018-06-29T04:29:39.198Z,8.70
2018-06-29T04:32:07.593Z,9.87
2018-06-29T04:34:35.901Z,9.70
2018-06-29T04:37:04.280Z,8.90
2018-06-29T04:39:32.650Z,9.93
2018-06-29T04:42:01.075Z,9.50
2018-06-29T04:44:29.522Z,9.10
2018-06-29T04:46:57.953Z,9.53
2018-06-29T04:49:26.289Z,9.40
2018-06-29T04:51:54.701Z,9.00
2018-06-29T04:54:23.126Z,8.97
2018-06-29T04:56:51.633Z,9.77
2018-06-29T04:59:20.005Z,8.83
2018-06-29T05:01:48.360Z,10.30
2018-06-29T05:04:16.681Z,9.87
2018-06-29T05:06:44.909Z,10.00
2018-06-29T05:09:13.291Z,11.50
2018-06-29T05:11:41.657Z,10.27
2018-06-29T05:14:10.055Z,9.00
2018-06-29T05:16:38.427Z,9.73
2018-06-29T05:19:06.816Z,9.80
2018-06-29T05:21:35.163Z,9.63
2018-06-29T05:24:03.594Z,10.97
2018-06-29T05:26:32.094Z,10.60
2018-06-29T05:29:00.470Z,11.50
2018-06-29T05:31:28.903Z,9.83
2018-06-29T05:33:57.361Z,10.30
2018-06-29T05:36:25.717Z,9.33
2018-06-29T05:38:54.099Z,10.07
2018-06-29T05:41:22.470Z,9.93
2018-06-29T05:43:50.979Z,10.80
2018-06-29T05:46:19.413Z,9.73
2018-06-29T05:48:47.820Z,11.23
2018-06-29T05:51:16.508Z,12.10
2018-06-29T05:53:45.008Z,9.77
2018-06-29T05:56:13.463Z,10.10
2018-06-29T05:58:41.889Z,9.83
2018-06-29T06:01:12.338Z,8.80
2018-06-29T06:03:40.784Z,8.80
2018-06-29T06:06:09.438Z,10.33
2018-06-29T06:08:37.868Z,9.67
2018-06-29T06:11:06.601Z,9.53
2018-06-29T06:13:34.986Z,9.70
2018-06-29T06:16:03.474Z,10.60
2018-06-29T06:18:31.822Z,10.73
2018-06-29T06:21:00.210Z,11.20
2018-06-29T06:23:28.558Z,11.90
2018-06-29T06:25:56.999Z,11.20
2018-06-29T06:28:25.366Z,11.03
2018-06-29T06:30:53.745Z,11.90
2018-06-29T06:33:22.181Z,11.83
2018-06-29T06:35:50.401Z,10.43
2018-06-29T06:38:18.881Z,11.87
2018-06-29T06:40:47.270Z,11.83
2018-06-29T06:43:15.609Z,11.37
2018-06-29T06:45:43.921Z,10.90
2018-06-29T06:48:12.382Z,11.63
2018-06-29T06:50:40.694Z,12.30
2018-06-29T06:53:09.153Z,11.57
2018-06-29T06:55:37.581Z,11.20
2018-06-29T06:58:05.965Z,12.10
2018-06-29T07:00:34.341Z,12.60
2018-06-29T07:03:02.666Z,11.57
2018-06-29T07:05:31.100Z,12.40
2018-06-29T07:07:59.460Z,11.70
2018-06-29T07:10:27.844Z,11.57
2018-06-29T07:12:56.216Z,12.30
2018-06-29T07:15:24.666Z,12.57
2018-06-29T07:17:53.065Z,12.20
2018-06-29T07:20:21.312Z,12.90
2018-06-29T07:22:49.702Z,11.90
2018-06-29T07:25:18.333Z,11.57
2018-06-29T07:27:46.667Z,10.53
2018-06-29T07:30:15.133Z,11.50
2018-06-29T07:32:43.528Z,10.80
2018-06-29T07:35:11.822Z,10.37
2018-06-29T07:37:40.026Z,12.50
2018-06-29T07:40:08.374Z,10.87
2018-06-29T07:42:36.673Z,9.70
2018-06-29T07:45:05.242Z,9.30
2018-06-29T07:47:33.556Z,9.93
2018-06-29T07:50:01.958Z,10.73
2018-06-29T07:52:30.293Z,10.90
2018-06-29T07:54:58.644Z,9.97
2018-06-29T07:57:26.870Z,10.00
2018-06-29T07:59:55.233Z,10.17
2018-06-29T08:02:23.615Z,10.77
2018-06-29T08:04:51.973Z,10.03
2018-06-29T08:07:20.327Z,9.83
2018-06-29T08:09:48.647Z,10.67
2018-06-29T08:12:17.315Z,9.70
2018-06-29T08:14:45.655Z,10.37
2018-06-29T08:17:13.959Z,9.90
2018-06-29T08:19:42.269Z,10.73
2018-06-29T08:22:10.577Z,10.60
2018-06-29T08:24:56.030Z,10.33
2018-06-29T08:27:24.439Z,10.23
2018-06-29T08:29:52.814Z,10.13
2018-06-29T08:32:21.130Z,10.00
2018-06-29T08:34:49.497Z,11.33
2018-06-29T08:37:17.921Z,11.20
2018-06-29T08:39:46.405Z,10.63
2018-06-29T08:42:14.801Z,9.80
2018-06-29T08:44:43.137Z,9.30
2018-06-29T08:47:11.506Z,8.83
2018-06-29T08:49:39.962Z,10.03
2018-06-29T08:52:08.188Z,12.43
2018-06-29T08:54:36.558Z,11.13
2018-06-29T08:57:05.014Z,11.17
2018-06-29T08:59:33.850Z,11.20
2018-06-29T09:02:02.227Z,11.07
2018-06-29T09:04:30.589Z,10.50
2018-06-29T09:06:59.007Z,11.07
2018-06-29T09:09:27.354Z,11.70
2018-06-29T09:11:55.714Z,10.10
2018-06-29T09:14:24.034Z,10.27
2018-06-29T09:16:52.445Z,11.00
2018-06-29T09:19:20.878Z,9.20
2018-06-29T09:21:49.208Z,10.43
2018-06-29T09:24:17.600Z,10.93
2018-06-29T09:26:45.946Z,11.70
2018-06-29T09:29:14.267Z,10.37
2018-06-29T09:31:42.969Z,9.80
2018-06-29T09:34:11.649Z,10.37
2018-06-29T09:36:40.040Z,11.20
2018-06-29T09:39:11.106Z,9.67
2018-06-29T09:41:39.676Z,11.77
2018-06-29T09:44:08.045Z,10.97
2018-06-29T09:46:36.451Z,10.43
2018-06-29T09:49:05.084Z,9.80
2018-06-29T09:51:34.140Z,10.50
2018-06-29T09:54:02.626Z,9.70
2018-06-29T09:56:30.882Z,9.60
2018-06-29T09:58:59.270Z,8.87
2018-06-29T10:01:27.676Z,9.10
2018-06-29T10:03:56.632Z,10.73
2018-06-29T10:06:25.017Z,9.73
2018-06-29T10:08:53.356Z,10.53
2018-06-29T10:11:21.827Z,9.20
2018-06-29T10:13:50.137Z,10.90
2018-06-29T10:16:18.549Z,10.63
2018-06-29T10:18:47.743Z,9.40
2018-06-29T10:21:16.108Z,9.60
2018-06-29T10:23:44.430Z,9.50
2018-06-29T10:26:12.704Z,9.60
2018-06-29T10:28:41.058Z,9.00
2018-06-29T10:31:09.399Z,9.10
2018-06-29T10:33:37.722Z,8.37
2018-06-29T10:36:06.077Z,8.80
2018-06-29T10:38:34.372Z,8.70
2018-06-29T10:41:02.757Z,7.97
2018-06-29T10:43:31.072Z,9.00
2018-06-29T10:45:59.534Z,9.00
2018-06-29T10:48:28.792Z,8.40
2018-06-29T10:50:57.060Z,8.27
2018-06-29T10:53:25.436Z,9.40
2018-06-29T10:55:53.672Z,8.97
2018-06-29T10:58:22.085Z,10.03
2018-06-29T11:00:50.478Z,8.73
2018-06-29T11:03:18.890Z,10.07
2018-06-29T11:05:47.258Z,9.73
2018-06-29T11:08:15.677Z,8.70
2018-06-29T11:10:44.103Z,9.53
2018-06-29T11:13:12.462Z,9.37
2018-06-29T11:15:40.847Z,9.70
2018-06-29T11:18:09.230Z,10.20
2018-06-29T11:20:37.661Z,8.80
2018-06-29T11:23:06.070Z,11.70
2018-06-29T11:25:34.534Z,10.03
2018-06-29T11:28:02.895Z,9.80
2018-06-29T11:30:31.238Z,9.50
2018-06-29T11:32:59.625Z,8.77
2018-06-29T11:35:28.028Z,9.90
2018-06-29T11:37:56.318Z,9.40
2018-06-29T11:40:24.656Z,9.73
2018-06-29T11:42:53.053Z,9.60
2018-06-29T11:45:21.376Z,9.23
2018-06-29T11:47:49.589Z,9.67
2018-06-29T11:50:17.952Z,9.70
2018-06-29T11:52:46.286Z,9.03
2018-06-29T11:55:14.517Z,8.33
2018-06-29T11:57:42.805Z,9.50
2018-06-29T12:00:11.166Z,9.30
2018-06-29T12:02:39.565Z,8.80
2018-06-29T12:05:07.950Z,9.30
2018-06-29T12:07:36.484Z,9.20
2018-06-29T12:10:04.793Z,9.93
2018-06-29T12:12:33.182Z,9.33
2018-06-29T12:15:01.535Z,9.27
2018-06-29T12:17:29.878Z,9.87
2018-06-29T12:19:58.184Z,9.97
2018-06-29T12:22:26.497Z,9.17
2018-06-29T12:24:54.840Z,9.40
2018-06-29T12:27:23.216Z,9.13
2018-06-29T12:29:51.599Z,9.70
2018-06-29T12:32:19.969Z,9.17
2018-06-29T12:34:48.384Z,9.50
2018-06-29T12:37:16.757Z,9.40
2018-06-29T12:39:45.100Z,8.37
2018-06-29T12:42:13.488Z,8.60
2018-06-29T12:44:41.827Z,7.93
2018-06-29T12:47:10.173Z,7.20
2018-06-29T12:49:38.558Z,6.80
2018-06-29T12:52:06.926Z,7.10
2018-06-29T12:54:35.241Z,7.50
2018-06-29T12:57:03.687Z,7.77
2018-06-29T12:59:32.047Z,6.97
2018-06-29T13:02:00.458Z,7.63
2018-06-29T13:04:28.823Z,8.00
2018-06-29T13:06:57.065Z,7.70
2018-06-29T13:09:25.708Z,7.70
2018-06-29T13:11:54.053Z,7.77
2018-06-29T13:14:22.439Z,7.57
2018-06-29T13:16:50.817Z,7.30
2018-06-29T13:19:19.189Z,8.00
2018-06-29T13:21:47.566Z,7.03
2018-06-29T13:24:15.869Z,7.80
2018-06-29T13:26:44.190Z,7.40
2018-06-29T13:29:12.565Z,7.13
2018-06-29T13:31:40.884Z,6.73
2018-06-29T13:34:09.198Z,7.60
2018-06-29T13:36:37.566Z,7.53
2018-06-29T13:39:09.378Z,7.80
2018-06-29T13:41:37.728Z,7.17
2018-06-29T13:44:06.121Z,6.63
2018-06-29T13:46:34.476Z,7.37
2018-06-29T13:49:02.839Z,7.33
2018-06-29T13:51:31.146Z,7.17
2018-06-29T13:53:59.528Z,6.87
2018-06-29T13:56:27.924Z,8.07
2018-06-29T13:58:56.337Z,6.63
2018-06-29T14:01:24.674Z,6.33
2018-06-29T14:03:53.021Z,6.20
2018-06-29T14:06:21.386Z,7.40
2018-06-29T14:08:49.762Z,5.93
2018-06-29T14:11:18.313Z,7.17
2018-06-29T14:13:46.711Z,7.80
2018-06-29T14:16:15.094Z,6.50
2018-06-29T14:18:43.429Z,7.60
2018-06-29T14:21:11.836Z,7.63
2018-06-29T14:23:40.201Z,7.63
2018-06-29T14:26:08.537Z,8.00
2018-06-29T14:28:37.313Z,7.60
2018-06-29T14:31:05.588Z,6.73
2018-06-29T14:33:33.923Z,6.63
2018-06-29T14:36:02.311Z,6.90
2018-06-29T14:38:30.681Z,7.87
2018-06-29T14:40:59.252Z,7.20
2018-06-29T14:43:27.502Z,7.17
2018-06-29T14:45:55.906Z,7.57
2018-06-29T14:48:24.254Z,7.33
2018-06-29T14:50:52.652Z,7.13
2018-06-29T14:53:20.974Z,6.97
2018-06-29T14:55:49.352Z,6.80
2018-06-29T14:58:17.854Z,7.13
2018-06-29T15:00:46.209Z,6.93
2018-06-29T15:03:14.616Z,6.80
2018-06-29T15:05:43.033Z,7.73
2018-06-29T15:08:11.405Z,7.63
2018-06-29T15:10:39.797Z,7.60
2018-06-29T15:13:08.207Z,8.90
2018-06-29T15:15:36.748Z,7.23
2018-06-29T15:18:06.355Z,11.50
2018-06-29T15:20:34.735Z,8.87
2018-06-29T15:23:03.157Z,7.93
2018-06-29T15:25:31.613Z,8.40
2018-06-29T15:28:00.133Z,9.00
2018-06-29T15:30:28.546Z,7.90
2018-06-29T15:32:56.931Z,8.30
2018-06-29T15:35:25.246Z,7.30
2018-06-29T15:37:53.685Z,8.43
2018-06-29T15:40:22.042Z,7.10
2018-06-29T15:42:50.383Z,6.83
2018-06-29T15:45:20.493Z,8.20
2018-06-29T15:47:48.817Z,8.20
2018-06-29T15:50:17.193Z,7.90
2018-06-29T15:52:45.500Z,8.10
2018-06-29T15:55:13.878Z,6.83
2018-06-29T15:57:42.273Z,8.23
2018-06-29T16:00:10.837Z,8.00
2018-06-29T16:02:39.188Z,8.60
2018-06-29T16:05:07.717Z,7.50
2018-06-29T16:07:36.170Z,8.07
2018-06-29T16:10:04.692Z,7.27
2018-06-29T16:12:33.110Z,7.33
2018-06-29T16:15:01.476Z,7.57
2018-06-29T16:17:29.899Z,7.27
2018-06-29T16:19:58.304Z,7.37
2018-06-29T16:22:27.253Z,8.13
2018-06-29T16:24:56.583Z,6.73
2018-06-29T16:27:24.943Z,8.40
2018-06-29T16:29:53.362Z,7.70
2018-06-29T16:32:21.742Z,7.30
2018-06-29T16:34:50.075Z,7.63
2018-06-29T16:37:18.506Z,7.37
2018-06-29T16:39:46.922Z,7.80
2018-06-29T16:42:15.454Z,7.67
2018-06-29T16:44:43.833Z,8.10
2018-06-29T16:47:12.238Z,7.27
2018-06-29T16:49:40.638Z,7.70
2018-06-29T16:52:09.113Z,7.40
2018-06-29T16:54:37.547Z,7.83
2018-06-29T16:57:06.014Z,8.20
2018-06-29T16:59:34.269Z,7.97
2018-06-29T17:02:02.667Z,8.37
2018-06-29T17:04:31.146Z,7.20
2018-06-29T17:06:59.560Z,7.40
2018-06-29T17:09:27.998Z,7.13
2018-06-29T17:11:56.316Z,7.20
2018-06-29T17:14:25.009Z,7.80
2018-06-29T17:16:53.519Z,8.77
2018-06-29T17:19:22.003Z,7.93
2018-06-29T17:21:50.414Z,7.70
2018-06-29T17:24:18.760Z,7.57
2018-06-29T17:26:47.214Z,7.67
2018-06-29T17:29:15.684Z,8.10
2018-06-29T17:31:44.028Z,7.70
2018-06-29T17:34:12.505Z,7.10
2018-06-29T17:36:40.808Z,7.53
2018-06-29T17:39:10.609Z,7.43
2018-06-29T17:41:39.266Z,7.53
2018-06-29T17:44:07.658Z,7.67
2018-06-29T17:46:36.290Z,7.70
2018-06-29T17:49:04.665Z,7.60
2018-06-29T17:51:33.080Z,8.03
2018-06-29T17:54:01.473Z,8.53
2018-06-29T17:56:32.743Z,7.40
2018-06-29T17:59:01.120Z,7.80
2018-06-29T18:01:29.575Z,7.97
2018-06-29T18:03:58.058Z,7.80
2018-06-29T18:06:26.597Z,7.60
2018-06-29T18:08:55.003Z,8.10
2018-06-29T18:11:23.329Z,8.40
2018-06-29T18:13:51.674Z,7.40
2018-06-29T18:16:20.043Z,8.10
2018-06-29T18:18:48.441Z,7.70
2018-06-29T18:21:16.915Z,7.33
2018-06-29T18:23:45.447Z,9.20
2018-06-29T18:26:13.831Z,7.90
2018-06-29T18:28:42.298Z,7.47
2018-06-29T18:31:10.711Z,7.33
2018-06-29T18:33:39.058Z,7.43
2018-06-29T18:36:07.567Z,7.97
2018-06-29T18:38:35.957Z,8.27
2018-06-29T18:41:04.461Z,8.17
2018-06-29T18:43:32.946Z,8.00
2018-06-29T18:46:01.462Z,7.93
2018-06-29T18:48:29.741Z,8.40
2018-06-29T18:50:58.241Z,8.53
2018-06-29T18:53:26.633Z,7.97
2018-06-29T18:55:55.223Z,8.33
2018-06-29T18:58:23.638Z,9.10
2018-06-29T19:00:52.071Z,8.73
2018-06-29T19:03:20.554Z,8.70
2018-06-29T19:05:48.954Z,9.00
2018-06-29T19:08:17.352Z,11.47
2018-06-29T19:10:45.837Z,10.03
2018-06-29T19:13:14.235Z,11.30
2018-06-29T19:15:42.722Z,20.60
2018-06-29T19:18:11.195Z,9.40
2018-06-29T19:20:39.591Z,10.00
2018-06-29T19:23:08.047Z,9.23
2018-06-29T19:25:37.352Z,9.40
2018-06-29T19:28:05.702Z,9.03
2018-06-29T19:30:34.244Z,9.60
2018-06-29T19:33:02.658Z,10.10
2018-06-29T19:35:31.087Z,9.90
2018-06-29T19:37:59.549Z,9.93
2018-06-29T19:40:28.043Z,9.30
2018-06-29T19:42:56.465Z,9.70
2018-06-29T19:45:24.944Z,9.47
2018-06-29T19:47:53.321Z,8.50
2018-06-29T19:50:21.718Z,9.43
2018-06-29T19:52:50.197Z,9.13
2018-06-29T19:55:18.620Z,11.13
2018-06-29T19:57:47.002Z,9.83
2018-06-29T20:00:15.470Z,9.70
2018-06-29T20:02:43.901Z,10.30
2018-06-29T20:05:12.461Z,9.60
2018-06-29T20:07:40.742Z,8.73
2018-06-29T20:10:09.366Z,8.43
2018-06-29T20:12:37.886Z,10.10
2018-06-29T20:15:08.233Z,9.47
2018-06-29T20:17:36.710Z,10.03
2018-06-29T20:20:06.787Z,9.60
2018-06-29T20:22:35.215Z,9.40
2018-06-29T20:25:03.990Z,10.30
2018-06-29T20:27:32.455Z,9.20
2018-06-29T20:30:00.927Z,10.63
2018-06-29T20:32:29.349Z,10.20
2018-06-29T20:34:57.716Z,10.00
2018-06-29T20:37:26.191Z,9.60
2018-06-29T20:39:54.558Z,10.17
2018-06-29T20:42:22.972Z,9.93
2018-06-29T20:44:51.367Z,10.10
2018-06-29T20:47:19.901Z,11.50
2018-06-29T20:49:48.332Z,11.60
2018-06-29T20:52:16.855Z,10.10
2018-06-29T20:54:45.265Z,9.17
2018-06-29T20:57:13.691Z,10.00
2018-06-29T20:59:42.080Z,10.13
2018-06-29T21:02:10.455Z,9.60
2018-06-29T21:04:38.990Z,10.23
2018-06-29T21:07:07.140Z,9.23
2018-06-29T21:09:35.477Z,10.50
2018-06-29T21:12:03.930Z,10.13
2018-06-29T21:14:32.189Z,9.70
2018-06-29T21:17:00.553Z,10.63
2018-06-29T21:19:29.079Z,9.90
2018-06-29T21:21:57.456Z,11.87
2018-06-29T21:24:25.794Z,10.67
2018-06-29T21:26:54.244Z,10.87
2018-06-29T21:29:22.607Z,10.70
2018-06-29T21:31:51.018Z,11.40
2018-06-29T21:34:19.452Z,10.60
2018-06-29T21:36:47.837Z,10.80
2018-06-29T21:39:16.175Z,11.47
2018-06-29T21:41:44.582Z,12.20
2018-06-29T21:44:19.739Z,10.70
2018-06-29T21:46:48.211Z,10.77
2018-06-29T21:49:16.615Z,10.37
2018-06-29T21:51:45.017Z,10.40
2018-06-29T21:54:13.439Z,9.77
2018-06-29T21:56:41.906Z,10.80
2018-06-29T21:59:10.368Z,9.93
2018-06-29T22:01:38.801Z,10.80
2018-06-29T22:04:07.274Z,10.60
2018-06-29T22:06:35.623Z,11.10
2018-06-29T22:09:05.862Z,10.70
2018-06-29T22:11:34.239Z,11.07
2018-06-29T22:14:02.748Z,10.70
2018-06-29T22:16:31.167Z,11.27
2018-06-29T22:18:59.566Z,10.53
2018-06-29T22:21:27.950Z,11.23
2018-06-29T22:23:56.494Z,10.80
2018-06-29T22:26:24.954Z,11.10
2018-06-29T22:28:53.418Z,11.07
2018-06-29T22:31:21.742Z,10.87
2018-06-29T22:33:50.464Z,10.60
2018-06-29T22:36:18.900Z,10.53
2018-06-29T22:38:47.335Z,10.93
2018-06-29T22:41:15.753Z,10.90
2018-06-29T22:43:44.353Z,11.03
2018-06-29T22:46:12.951Z,12.90
2018-06-29T22:48:41.331Z,10.80
2018-06-29T22:51:09.833Z,11.07
2018-06-29T22:53:38.226Z,10.27
2018-06-29T22:56:06.654Z,10.47
2018-06-29T22:58:35.077Z,10.17
2018-06-29T23:01:03.533Z,10.10
2018-06-29T23:03:37.478Z,11.60
2018-06-29T23:06:05.898Z,11.63
2018-06-29T23:08:34.328Z,10.67
2018-06-29T23:11:02.707Z,13.00
2018-06-29T23:13:32.891Z,11.07
2018-06-29T23:16:01.434Z,10.80
2018-06-29T23:18:29.922Z,10.60
2018-06-29T23:20:58.256Z,11.23
2018-06-29T23:23:26.818Z,11.03
2018-06-29T23:25:55.193Z,10.27
2018-06-29T23:28:23.554Z,11.60
2018-06-29T23:30:51.972Z,10.27
2018-06-29T23:33:20.391Z,12.37
2018-06-29T23:35:48.707Z,11.40
2018-06-29T23:38:17.112Z,12.50
2018-06-29T23:40:45.564Z,12.50
2018-06-29T23:43:14.000Z,12.00
2018-06-29T23:45:42.316Z,11.00
2018-06-29T23:48:10.797Z,11.10
2018-06-29T23:50:39.193Z,12.50
2018-06-29T23:53:07.623Z,11.67
2018-06-29T23:55:36.079Z,10.97
2018-06-29T23:58:04.325Z,10.10
